createdAt,value
2023-05-12T00:00:34.549Z,4.82
2023-05-12T00:03:07.261Z,5.10
2023-05-12T00:05:36.773Z,4.85
2023-05-12T00:08:06.513Z,4.60
2023-05-12T00:10:36.867Z,4.20
2023-05-12T00:13:08.514Z,6.00
2023-05-12T00:15:38.456Z,4.75
2023-05-12T00:18:09.366Z,5.18
2023-05-12T00:20:39.459Z,5.22
2023-05-12T00:23:08.756Z,5.18
2023-05-12T00:25:40.540Z,5.20
2023-05-12T00:28:09.842Z,4.90
2023-05-12T00:30:39.037Z,5.00
2023-05-12T00:33:09.199Z,5.05
2023-05-12T00:35:40.903Z,5.03
2023-05-12T00:38:10.723Z,4.53
2023-05-12T00:40:39.835Z,4.88
2023-05-12T00:43:09.976Z,5.18
2023-05-12T00:45:40.086Z,5.53
2023-05-12T00:48:11.368Z,5.22
2023-05-12T00:50:42.999Z,4.80
2023-05-12T00:53:12.421Z,6.57
2023-05-12T00:55:43.827Z,5.03
2023-05-12T00:58:12.691Z,6.25
2023-05-12T01:00:41.813Z,4.70
2023-05-12T01:03:12.341Z,5.63
2023-05-12T01:05:48.727Z,5.30
2023-05-12T01:08:18.389Z,5.55
2023-05-12T01:10:48.309Z,5.00
2023-05-12T01:13:19.814Z,4.80
2023-05-12T01:15:51.498Z,4.70
2023-05-12T01:18:24.442Z,5.05
2023-05-12T01:20:56.497Z,4.90
2023-05-12T01:23:33.283Z,5.25
2023-05-12T01:26:07.855Z,5.00
2023-05-12T01:28:38.960Z,5.25
2023-05-12T01:31:11.191Z,5.17
2023-05-12T01:33:40.961Z,5.13
2023-05-12T01:36:10.880Z,5.00
2023-05-12T01:38:41.985Z,4.53
2023-05-12T01:41:12.187Z,5.75
2023-05-12T01:43:46.958Z,5.67
2023-05-12T01:46:19.831Z,6.57
2023-05-12T01:48:49.811Z,6.45
2023-05-12T01:51:19.557Z,6.10
2023-05-12T01:53:50.852Z,5.82
2023-05-12T01:56:21.920Z,6.00
2023-05-12T01:58:52.018Z,5.05
2023-05-12T02:01:20.921Z,5.68
2023-05-12T02:03:52.937Z,4.63
2023-05-12T02:06:24.844Z,4.70
2023-05-12T02:08:53.918Z,5.65
2023-05-12T02:11:25.198Z,4.82
2023-05-12T02:13:53.979Z,4.60
2023-05-12T02:16:22.843Z,5.95
2023-05-12T02:18:51.885Z,5.60
2023-05-12T02:21:21.763Z,5.43
2023-05-12T02:23:53.803Z,5.90
2023-05-12T02:26:25.939Z,5.20
2023-05-12T02:28:55.838Z,5.43
2023-05-12T02:31:24.859Z,5.38
2023-05-12T02:33:53.827Z,6.10
2023-05-12T02:36:22.856Z,5.07
2023-05-12T02:38:52.756Z,5.10
2023-05-12T02:41:26.812Z,6.80
2023-05-12T02:43:55.796Z,5.57
2023-05-12T02:46:24.882Z,5.00
2023-05-12T02:48:53.812Z,5.97
2023-05-12T02:51:23.533Z,5.82
2023-05-12T02:53:53.334Z,6.35
2023-05-12T02:56:23.561Z,6.63
2023-05-12T02:58:54.536Z,6.68
2023-05-12T03:01:23.417Z,7.25
2023-05-12T03:03:52.261Z,7.03
2023-05-12T03:06:21.169Z,7.63
2023-05-12T03:08:54.526Z,7.57
2023-05-12T03:11:24.012Z,7.00
2023-05-12T03:13:54.195Z,6.05
2023-05-12T03:16:23.824Z,6.60
2023-05-12T03:18:52.866Z,7.65
2023-05-12T03:21:22.266Z,6.72
2023-05-12T03:23:50.999Z,5.88
2023-05-12T03:26:19.825Z,5.93
2023-05-12T03:28:48.797Z,6.13
2023-05-12T03:31:22.686Z,6.68
2023-05-12T03:33:51.804Z,5.97
2023-05-12T03:36:20.844Z,5.97
2023-05-12T03:38:49.818Z,6.43
2023-05-12T03:41:18.958Z,5.65
2023-05-12T03:43:47.717Z,5.22
2023-05-12T03:46:16.658Z,4.90
2023-05-12T03:48:46.966Z,4.93
2023-05-12T03:51:15.894Z,4.55
2023-05-12T03:53:47.726Z,4.32
2023-05-12T03:56:17.250Z,4.57
2023-05-12T03:58:47.382Z,4.38
2023-05-12T04:01:18.935Z,4.20
2023-05-12T04:03:49.422Z,4.45
2023-05-12T04:06:51.004Z,5.38
2023-05-12T04:09:21.440Z,5.18
2023-05-12T04:11:51.404Z,5.22
2023-05-12T04:14:26.507Z,5.30
2023-05-12T04:17:03.881Z,5.55
2023-05-12T04:19:34.243Z,6.22
2023-05-12T04:22:02.989Z,21.42
2023-05-12T04:24:32.356Z,7.03
2023-05-12T04:27:01.383Z,7.22
2023-05-12T04:29:30.386Z,7.38
2023-05-12T04:32:00.137Z,7.13
2023-05-12T04:34:31.195Z,7.72
2023-05-12T04:37:01.490Z,8.00
2023-05-12T04:39:30.168Z,8.55
2023-05-12T04:42:01.390Z,9.25
2023-05-12T04:44:33.010Z,8.63
2023-05-12T04:47:02.182Z,10.40
2023-05-12T04:49:33.550Z,11.98
2023-05-12T04:52:05.010Z,12.82
2023-05-12T04:54:36.390Z,15.88
2023-05-12T04:57:05.605Z,16.27
2023-05-12T04:59:37.643Z,18.45
2023-05-12T05:02:07.133Z,19.30
2023-05-12T05:04:35.882Z,19.58
2023-05-12T05:07:06.818Z,20.23
2023-05-12T05:09:36.743Z,20.95
2023-05-12T05:12:06.953Z,22.05
2023-05-12T05:14:35.917Z,23.73
2023-05-12T05:17:07.033Z,22.70
2023-05-12T05:19:49.283Z,26.15
2023-05-12T05:22:25.291Z,23.08
2023-05-12T05:24:54.171Z,25.27
2023-05-12T05:27:22.897Z,25.38
2023-05-12T05:29:52.508Z,26.90
2023-05-12T05:32:23.432Z,25.20
2023-05-12T05:34:52.130Z,27.73
2023-05-12T05:37:21.066Z,27.50
2023-05-12T05:39:51.175Z,24.92
2023-05-12T05:42:20.041Z,25.40
2023-05-12T05:44:48.956Z,25.58
2023-05-12T05:47:19.166Z,25.25
2023-05-12T05:49:47.997Z,21.95
2023-05-12T05:52:17.356Z,23.05
2023-05-12T05:54:46.134Z,21.63
2023-05-12T05:57:18.376Z,20.25
2023-05-12T05:59:47.675Z,20.60
2023-05-12T06:02:17.423Z,20.92
2023-05-12T06:04:46.416Z,20.35
2023-05-12T06:07:15.063Z,21.88
2023-05-12T06:09:46.495Z,21.08
2023-05-12T06:12:15.345Z,22.25
2023-05-12T06:14:45.608Z,21.17
2023-05-12T06:17:14.322Z,20.42
2023-05-12T06:19:44.151Z,21.90
2023-05-12T06:22:12.926Z,21.77
2023-05-12T06:24:41.782Z,23.30
2023-05-12T06:27:11.813Z,20.63
2023-05-12T06:29:40.601Z,21.35
2023-05-12T06:32:10.959Z,20.92
2023-05-12T06:34:39.754Z,19.40
2023-05-12T06:37:08.411Z,21.55
2023-05-12T06:39:37.211Z,22.23
2023-05-12T06:42:08.525Z,22.33
2023-05-12T06:44:45.695Z,21.58
2023-05-12T06:47:18.475Z,21.70
2023-05-12T06:49:47.135Z,20.85
2023-05-12T06:52:20.577Z,21.73
2023-05-12T06:54:49.320Z,20.48
2023-05-12T06:57:17.975Z,23.63
2023-05-12T06:59:46.679Z,21.25
2023-05-12T07:02:15.390Z,22.10
2023-05-12T07:04:45.480Z,21.50
2023-05-12T07:07:14.213Z,20.55
2023-05-12T07:09:43.163Z,21.48
2023-05-12T07:12:14.012Z,20.63
2023-05-12T07:14:42.834Z,22.48
2023-05-12T07:17:13.577Z,21.67
2023-05-12T07:19:43.610Z,20.02
2023-05-12T07:22:13.722Z,19.33
2023-05-12T07:24:43.006Z,21.33
2023-05-12T07:27:14.067Z,19.23
2023-05-12T07:29:42.834Z,19.58
2023-05-12T07:32:11.747Z,20.08
2023-05-12T07:34:45.138Z,21.40
2023-05-12T07:37:15.305Z,21.35
2023-05-12T07:39:44.026Z,20.35
2023-05-12T07:42:15.060Z,21.90
2023-05-12T07:44:44.009Z,20.80
2023-05-12T07:47:13.213Z,21.42
2023-05-12T07:49:42.164Z,18.40
2023-05-12T07:52:10.846Z,21.30
2023-05-12T07:54:41.175Z,21.20
2023-05-12T07:57:09.873Z,19.25
2023-05-12T07:59:38.528Z,18.45
2023-05-12T08:02:08.082Z,19.40
2023-05-12T08:04:37.146Z,20.77
2023-05-12T08:07:06.059Z,21.27
2023-05-12T08:09:34.759Z,19.13
2023-05-12T08:12:05.333Z,18.52
2023-05-12T08:14:34.127Z,19.98
2023-05-12T08:17:02.973Z,20.05
2023-05-12T08:19:31.667Z,19.75
2023-05-12T08:22:02.961Z,20.10
2023-05-12T08:24:31.897Z,19.17
2023-05-12T08:27:00.644Z,20.15
2023-05-12T08:29:30.833Z,19.95
2023-05-12T08:31:59.783Z,17.92
2023-05-12T08:34:28.507Z,19.65
2023-05-12T08:36:57.237Z,17.58
2023-05-12T08:39:26.002Z,18.88
2023-05-12T08:42:04.917Z,17.58
2023-05-12T08:44:35.260Z,18.73
2023-05-12T08:47:06.791Z,17.42
2023-05-12T08:49:39.804Z,17.40
2023-05-12T08:52:09.637Z,17.42
2023-05-12T08:54:52.299Z,16.58
2023-05-12T08:57:26.505Z,16.15
2023-05-12T09:00:00.228Z,15.68
2023-05-12T09:02:44.655Z,16.90
2023-05-12T09:05:17.623Z,16.55
2023-05-12T09:07:48.035Z,16.05
2023-05-12T09:10:33.755Z,16.20
2023-05-12T09:13:10.044Z,14.52
2023-05-12T09:15:44.088Z,15.32
2023-05-12T09:18:12.864Z,16.25
2023-05-12T09:20:41.704Z,14.85
2023-05-12T09:23:18.205Z,14.52
2023-05-12T09:26:01.184Z,15.98
2023-05-12T09:28:37.212Z,14.77
2023-05-12T09:31:18.007Z,15.88
2023-05-12T09:33:46.856Z,14.15
2023-05-12T09:36:19.291Z,14.20
2023-05-12T09:38:48.523Z,13.80
2023-05-12T09:41:24.004Z,14.52
2023-05-12T09:43:54.367Z,14.23
2023-05-12T09:46:25.910Z,13.35
2023-05-12T09:48:57.327Z,13.60
2023-05-12T09:51:27.113Z,15.40
2023-05-12T09:53:55.948Z,14.38
2023-05-12T09:56:28.991Z,14.38
2023-05-12T10:01:28.682Z,24.95
2023-05-12T10:03:59.378Z,14.40
2023-05-12T10:06:35.184Z,13.32
2023-05-12T10:09:15.823Z,12.32
2023-05-12T10:11:45.842Z,13.85
2023-05-12T10:14:15.057Z,12.90
2023-05-12T10:16:47.219Z,13.75
2023-05-12T10:19:17.116Z,15.02
2023-05-12T10:21:47.118Z,15.15
2023-05-12T10:24:16.962Z,13.27
2023-05-12T10:26:46.033Z,14.15
2023-05-12T10:29:16.545Z,11.13
2023-05-12T10:31:48.046Z,13.20
2023-05-12T10:34:19.136Z,13.02
2023-05-12T10:36:49.321Z,14.77
2023-05-12T10:39:18.408Z,14.73
2023-05-12T10:41:47.075Z,14.43
2023-05-12T10:44:15.857Z,13.68
2023-05-12T10:46:45.956Z,14.57
2023-05-12T10:49:18.074Z,14.13
2023-05-12T10:51:50.713Z,15.63
2023-05-12T10:54:26.796Z,15.27
2023-05-12T10:57:02.195Z,14.45
2023-05-12T10:59:32.176Z,14.00
2023-05-12T11:02:05.908Z,13.98
2023-05-12T11:04:41.893Z,13.35
2023-05-12T11:07:13.920Z,13.43
2023-05-12T11:09:56.818Z,12.73
2023-05-12T11:12:32.713Z,13.77
2023-05-12T11:15:06.370Z,13.52
2023-05-12T11:17:41.553Z,14.57
2023-05-12T11:20:23.534Z,11.98
2023-05-12T11:22:55.372Z,13.68
2023-05-12T11:25:24.427Z,12.15
2023-05-12T11:27:53.179Z,12.32
2023-05-12T11:30:22.548Z,12.73
2023-05-12T11:33:03.371Z,13.15
2023-05-12T11:35:33.184Z,12.98
2023-05-12T11:38:03.021Z,13.07
2023-05-12T11:40:34.073Z,12.02
2023-05-12T11:43:10.994Z,10.65
2023-05-12T11:45:39.869Z,11.82
2023-05-12T11:48:14.979Z,11.77
2023-05-12T11:50:47.862Z,11.32
2023-05-12T11:53:20.007Z,13.07
2023-05-12T11:55:50.391Z,11.93
2023-05-12T11:58:24.498Z,10.40
2023-05-12T12:00:53.777Z,10.18
2023-05-12T12:03:24.485Z,10.15
2023-05-12T12:06:03.634Z,10.85
2023-05-12T12:08:38.826Z,9.60
2023-05-12T12:11:07.998Z,10.18
2023-05-12T12:13:36.676Z,10.05
2023-05-12T12:16:06.005Z,9.50
2023-05-12T12:18:36.225Z,10.77
2023-05-12T12:23:50.031Z,9.77
2023-05-12T12:26:21.685Z,11.80
2023-05-12T12:28:50.577Z,13.65
2023-05-12T12:31:19.267Z,14.65
2023-05-12T12:33:52.016Z,14.90
2023-05-12T12:36:20.755Z,14.73
2023-05-12T12:38:49.491Z,11.80
2023-05-12T12:41:18.217Z,13.88
2023-05-12T12:43:49.166Z,14.43
2023-05-12T12:46:20.434Z,13.68
2023-05-12T12:48:49.192Z,12.77
2023-05-12T12:51:19.345Z,14.07
2023-05-12T12:53:48.119Z,12.77
2023-05-12T12:56:16.802Z,14.15
2023-05-12T12:58:45.561Z,14.15
2023-05-12T13:01:16.577Z,14.20
2023-05-12T13:03:45.476Z,14.55
2023-05-12T13:06:14.146Z,13.85
2023-05-12T13:08:44.288Z,13.60
2023-05-12T13:11:13.005Z,14.25
2023-05-12T13:13:41.686Z,14.10
2023-05-12T13:16:10.443Z,13.60
2023-05-12T13:18:39.535Z,12.60
2023-05-12T13:21:08.354Z,13.70
2023-05-12T13:23:37.183Z,13.32
2023-05-12T13:26:07.339Z,13.15
2023-05-12T13:28:36.180Z,11.48
2023-05-12T13:31:07.486Z,11.70
2023-05-12T13:33:36.370Z,12.45
2023-05-12T13:36:05.357Z,13.32
2023-05-12T13:38:34.696Z,13.52
2023-05-12T13:41:07.108Z,11.45
2023-05-12T13:43:36.007Z,11.15
2023-05-12T13:46:04.737Z,13.00
2023-05-12T13:48:33.590Z,12.75
2023-05-12T13:51:02.362Z,13.35
2023-05-12T13:53:32.203Z,13.13
2023-05-12T13:56:17.548Z,12.77
2023-05-12T13:58:46.286Z,12.07
2023-05-12T14:01:15.037Z,11.98
2023-05-12T14:03:43.968Z,11.88
2023-05-12T14:06:15.854Z,12.50
2023-05-12T14:08:44.794Z,12.30
2023-05-12T14:11:13.492Z,10.65
2023-05-12T14:13:43.888Z,12.05
2023-05-12T14:16:14.148Z,11.25
2023-05-12T14:18:43.809Z,11.68
2023-05-12T14:21:12.860Z,10.98
2023-05-12T14:23:44.078Z,10.23
2023-05-12T14:26:12.856Z,9.15
2023-05-12T14:28:47.945Z,9.27
2023-05-12T14:33:48.534Z,9.60
2023-05-12T14:36:17.260Z,9.40
2023-05-12T14:38:46.102Z,10.30
2023-05-12T14:41:15.016Z,9.73
2023-05-12T14:43:45.144Z,8.75
2023-05-12T14:46:14.486Z,8.70
2023-05-12T14:48:43.378Z,8.60
2023-05-12T14:51:12.081Z,9.07
2023-05-12T14:53:40.773Z,7.85
2023-05-12T14:56:09.561Z,7.35
2023-05-12T14:58:38.302Z,6.80
2023-05-12T15:01:09.498Z,7.43
2023-05-12T15:03:41.014Z,6.10
2023-05-12T15:06:09.758Z,6.22
2023-05-12T15:08:38.436Z,6.65
2023-05-12T15:11:07.271Z,6.72
2023-05-12T15:13:35.988Z,6.30
2023-05-12T15:16:04.989Z,5.82
2023-05-12T15:18:35.132Z,6.65
2023-05-12T15:21:06.986Z,5.68
2023-05-12T15:23:35.769Z,7.20
2023-05-12T15:26:27.130Z,5.90
2023-05-12T15:28:56.588Z,7.05
2023-05-12T15:31:30.382Z,6.95
2023-05-12T15:34:03.139Z,6.35
2023-05-12T15:36:34.108Z,5.88
2023-05-12T15:39:03.785Z,6.50
2023-05-12T15:41:32.850Z,7.68
2023-05-12T15:44:01.559Z,6.45
2023-05-12T15:46:31.059Z,7.22
2023-05-12T15:48:59.822Z,7.60
2023-05-12T15:51:29.947Z,7.95
2023-05-12T15:53:58.844Z,7.20
2023-05-12T15:56:27.628Z,10.05
2023-05-12T15:58:57.320Z,13.02
2023-05-12T16:01:26.342Z,8.68
2023-05-12T16:03:56.166Z,8.32
2023-05-12T16:06:25.062Z,7.40
2023-05-12T16:08:55.360Z,7.35
2023-05-12T16:11:24.092Z,7.97
2023-05-12T16:13:53.253Z,8.07
2023-05-12T16:16:22.830Z,7.25
2023-05-12T16:18:53.950Z,7.88
2023-05-12T16:21:22.726Z,7.82
2023-05-12T16:23:51.454Z,7.18
2023-05-12T16:26:21.586Z,5.53
2023-05-12T16:28:50.316Z,5.90
2023-05-12T16:31:21.785Z,6.05
2023-05-12T16:33:50.550Z,5.68
2023-05-12T16:36:19.881Z,5.70
2023-05-12T16:38:48.630Z,5.22
2023-05-12T16:41:17.593Z,5.65
2023-05-12T16:43:47.922Z,3.53
2023-05-12T16:46:16.708Z,2.83
2023-05-12T16:48:45.469Z,2.78
2023-05-12T16:51:15.517Z,2.53
2023-05-12T16:53:44.347Z,2.92
2023-05-12T16:56:13.212Z,2.00
2023-05-12T16:58:44.421Z,2.63
2023-05-12T17:01:17.065Z,2.47
2023-05-12T17:03:45.958Z,2.80
2023-05-12T17:06:14.775Z,3.28
2023-05-12T17:08:43.536Z,3.28
2023-05-12T17:11:12.283Z,3.38
2023-05-12T17:13:40.943Z,2.78
2023-05-12T17:16:09.658Z,2.97
2023-05-12T17:21:13.975Z,1.75
2023-05-12T17:23:42.832Z,2.00
2023-05-12T17:26:11.642Z,2.22
2023-05-12T17:28:40.476Z,2.00
2023-05-12T17:31:09.421Z,2.33
2023-05-12T17:33:39.614Z,2.28
2023-05-12T17:36:12.747Z,1.85
2023-05-12T17:38:43.556Z,2.22
2023-05-12T17:41:16.228Z,2.28
2023-05-12T17:43:45.061Z,2.40
2023-05-12T17:46:16.148Z,1.90
2023-05-12T17:48:46.382Z,2.30
2023-05-12T17:51:15.064Z,2.55
2023-05-12T17:53:43.849Z,2.35
2023-05-12T17:56:12.639Z,2.30
2023-05-12T17:58:41.647Z,2.72
2023-05-12T18:01:10.457Z,2.28
2023-05-12T18:03:39.227Z,3.50
2023-05-12T18:06:12.779Z,2.63
2023-05-12T18:08:41.524Z,3.65
2023-05-12T18:11:10.344Z,3.53
2023-05-12T18:13:38.993Z,5.28
2023-05-12T18:16:12.861Z,6.30
2023-05-12T18:18:50.198Z,8.15
2023-05-12T18:21:20.451Z,9.20
2023-05-12T18:23:52.362Z,9.80
2023-05-12T18:26:21.330Z,11.02
2023-05-12T18:28:52.516Z,12.23
2023-05-12T18:36:14.157Z,13.18
2023-05-12T18:38:44.746Z,13.68
2023-05-12T18:41:13.840Z,12.15
2023-05-12T18:43:45.209Z,12.18
2023-05-12T18:46:14.382Z,11.88
2023-05-12T18:48:43.472Z,11.68
2023-05-12T18:51:12.666Z,12.00
2023-05-12T18:53:41.629Z,11.60
2023-05-12T18:56:11.842Z,11.45
2023-05-12T18:58:40.832Z,10.32
2023-05-12T19:01:10.072Z,10.88
2023-05-12T19:03:41.556Z,10.35
2023-05-12T19:06:10.695Z,10.45
2023-05-12T19:08:39.591Z,11.00
2023-05-12T19:11:08.727Z,11.23
2023-05-12T19:13:43.086Z,10.90
2023-05-12T19:16:12.738Z,9.90
2023-05-12T19:18:41.487Z,10.57
2023-05-12T19:21:10.649Z,10.55
2023-05-12T19:23:39.455Z,10.23
2023-05-12T19:26:11.294Z,9.55
2023-05-12T19:28:43.934Z,10.47
2023-05-12T19:31:12.766Z,10.70
2023-05-12T19:33:41.670Z,10.07
2023-05-12T19:36:11.987Z,10.13
2023-05-12T19:38:43.677Z,10.25
2023-05-12T19:41:14.804Z,9.20
2023-05-12T19:43:44.909Z,10.07
2023-05-12T19:46:15.109Z,11.27
2023-05-12T19:48:43.962Z,9.18
2023-05-12T19:51:12.777Z,9.38
2023-05-12T19:53:43.116Z,9.80
2023-05-12T19:56:15.084Z,8.75
2023-05-12T19:58:45.203Z,9.13
2023-05-12T20:01:14.076Z,9.30
2023-05-12T20:03:43.100Z,9.65
2023-05-12T20:06:14.208Z,9.65
2023-05-12T20:08:43.013Z,9.02
2023-05-12T20:11:11.806Z,9.48
2023-05-12T20:13:40.565Z,9.65
2023-05-12T20:16:10.716Z,8.90
2023-05-12T20:18:44.214Z,10.13
2023-05-12T20:21:12.996Z,8.48
2023-05-12T20:23:42.204Z,10.30
2023-05-12T20:26:11.113Z,9.85
2023-05-12T20:28:39.893Z,9.73
2023-05-12T20:31:14.794Z,8.80
2023-05-12T20:33:43.810Z,10.10
2023-05-12T20:36:12.492Z,10.13
2023-05-12T20:38:41.445Z,9.55
2023-05-12T20:41:13.723Z,9.98
2023-05-12T20:43:42.547Z,10.57
2023-05-12T20:46:11.830Z,13.98
2023-05-12T20:53:36.623Z,10.13
2023-05-12T20:56:08.816Z,10.20
2023-05-12T20:58:37.996Z,9.95
2023-05-12T21:01:06.911Z,10.23
2023-05-12T21:03:38.694Z,10.95
2023-05-12T21:06:07.968Z,11.05
2023-05-12T21:08:38.788Z,10.85
2023-05-12T21:11:15.768Z,11.85
2023-05-12T21:13:48.377Z,11.57
2023-05-12T21:16:20.119Z,12.10
2023-05-12T21:18:49.550Z,11.52
2023-05-12T21:21:18.732Z,12.25
2023-05-12T21:23:49.302Z,14.70
2023-05-12T21:26:18.132Z,13.40
2023-05-12T21:28:47.266Z,12.68
2023-05-12T21:31:18.512Z,13.88
2023-05-12T21:33:48.155Z,13.55
2023-05-12T21:36:17.165Z,13.93
2023-05-12T21:38:46.484Z,13.05
2023-05-12T21:41:18.895Z,13.75
2023-05-12T21:43:48.261Z,13.93
2023-05-12T21:46:17.586Z,15.05
2023-05-12T21:48:46.572Z,15.80
2023-05-12T21:51:16.057Z,16.00
2023-05-12T21:53:45.283Z,15.27
2023-05-12T21:56:14.893Z,15.20
2023-05-12T21:58:45.206Z,15.70
2023-05-12T22:01:14.318Z,16.77
2023-05-12T22:03:43.318Z,15.20
2023-05-12T22:06:13.028Z,15.07
2023-05-12T22:08:42.327Z,15.70
2023-05-12T22:11:11.980Z,15.88
2023-05-12T22:13:44.912Z,16.00
2023-05-12T22:16:13.934Z,16.45
2023-05-12T22:18:44.101Z,15.45
2023-05-12T22:21:15.643Z,15.93
2023-05-12T22:23:44.584Z,14.85
2023-05-12T22:26:13.409Z,15.48
2023-05-12T22:28:42.628Z,15.43
2023-05-12T22:31:13.086Z,15.68
2023-05-12T22:33:42.384Z,14.45
2023-05-12T22:36:11.486Z,15.10
2023-05-12T22:38:40.898Z,14.73
2023-05-12T22:41:12.527Z,14.38
2023-05-12T22:43:41.356Z,15.48
2023-05-12T22:46:10.433Z,13.52
2023-05-12T22:48:40.735Z,14.07
2023-05-12T22:51:10.039Z,13.55
2023-05-12T22:53:41.567Z,13.95
2023-05-12T22:56:10.722Z,13.88
2023-05-12T22:58:39.699Z,13.35
2023-05-12T23:01:09.048Z,13.80
2023-05-12T23:03:41.755Z,13.35
2023-05-12T23:06:11.131Z,12.65
2023-05-12T23:08:40.149Z,12.88
2023-05-12T23:11:09.860Z,11.07
2023-05-12T23:13:38.931Z,10.98
2023-05-12T23:16:10.324Z,11.18
2023-05-12T23:18:39.523Z,9.95
2023-05-12T23:21:09.909Z,10.18
2023-05-12T23:23:39.013Z,9.60
2023-05-12T23:26:10.934Z,9.98
2023-05-12T23:28:45.144Z,8.77
2023-05-12T23:31:14.094Z,8.50
2023-05-12T23:33:43.123Z,8.55
2023-05-12T23:36:14.608Z,7.40
2023-05-12T23:38:44.075Z,7.55
2023-05-12T23:41:13.381Z,7.38
2023-05-12T23:43:42.332Z,6.95
2023-05-12T23:46:11.729Z,6.35
2023-05-12T23:48:41.225Z,8.25
2023-05-12T23:51:13.962Z,5.47
2023-05-12T23:53:42.891Z,6.32
2023-05-12T23:56:14.908Z,6.68
2023-05-12T23:58:49.303Z,6.22
